createdAt,value
2018-08-04T00:01:52.943Z,7.43
2018-08-04T00:04:22.236Z,7.17
2018-08-04T00:06:51.203Z,7.40
2018-08-04T00:09:20.202Z,7.37
2018-08-04T00:11:49.484Z,7.63
2018-08-04T00:14:18.674Z,7.00
2018-08-04T00:16:48.001Z,7.57
2018-08-04T00:19:16.807Z,7.40
2018-08-04T00:21:45.870Z,7.60
2018-08-04T00:24:14.970Z,7.70
2018-08-04T00:26:44.255Z,7.83
2018-08-04T00:29:13.118Z,7.77
2018-08-04T00:31:42.151Z,6.90
2018-08-04T00:34:11.103Z,7.70
2018-08-04T00:36:40.393Z,7.07
2018-08-04T00:39:09.707Z,6.87
2018-08-04T00:41:38.834Z,7.57
2018-08-04T00:44:07.925Z,7.43
2018-08-04T00:46:37.076Z,6.93
2018-08-04T00:49:06.430Z,7.20
2018-08-04T00:51:35.274Z,7.07
2018-08-04T00:54:04.354Z,6.83
2018-08-04T00:56:33.468Z,7.17
2018-08-04T00:59:02.482Z,7.60
2018-08-04T01:01:31.638Z,6.90
2018-08-04T01:04:00.875Z,7.47
2018-08-04T01:06:29.631Z,7.80
2018-08-04T01:08:58.374Z,6.63
2018-08-04T01:11:27.598Z,7.57
2018-08-04T01:13:56.695Z,7.07
2018-08-04T01:16:25.873Z,7.40
2018-08-04T01:18:55.016Z,7.30
2018-08-04T01:21:23.850Z,7.23
2018-08-04T01:23:52.926Z,7.73
2018-08-04T01:26:22.209Z,7.63
2018-08-04T01:28:51.313Z,7.13
2018-08-04T01:31:20.509Z,7.60
2018-08-04T01:33:49.658Z,7.50
2018-08-04T01:36:18.766Z,7.60
2018-08-04T01:38:47.738Z,7.53
2018-08-04T01:41:16.793Z,7.63
2018-08-04T01:43:45.674Z,7.63
2018-08-04T01:46:14.810Z,7.27
2018-08-04T01:48:43.867Z,7.47
2018-08-04T01:51:12.686Z,7.70
2018-08-04T01:53:41.584Z,7.13
2018-08-04T01:56:10.727Z,7.40
2018-08-04T01:58:39.542Z,7.87
2018-08-04T02:01:08.516Z,7.07
2018-08-04T02:03:37.657Z,6.90
2018-08-04T02:06:06.903Z,7.53
2018-08-04T02:08:36.015Z,7.33
2018-08-04T02:11:04.785Z,7.47
2018-08-04T02:13:33.833Z,7.40
2018-08-04T02:16:02.654Z,7.33
2018-08-04T02:18:31.934Z,8.00
2018-08-04T02:21:01.055Z,6.93
2018-08-04T02:23:29.930Z,7.90
2018-08-04T02:25:58.699Z,7.50
2018-08-04T02:28:27.614Z,7.10
2018-08-04T02:30:56.766Z,7.47
2018-08-04T02:33:25.968Z,7.00
2018-08-04T02:35:55.479Z,7.30
2018-08-04T02:38:24.805Z,7.47
2018-08-04T02:40:54.099Z,7.03
2018-08-04T02:43:23.007Z,7.90
2018-08-04T02:45:52.282Z,7.00
2018-08-04T02:48:21.566Z,7.83
2018-08-04T02:50:50.686Z,7.40
2018-08-04T02:53:19.760Z,7.13
2018-08-04T02:55:48.688Z,7.33
2018-08-04T02:58:17.840Z,7.57
2018-08-04T03:00:47.064Z,7.97
2018-08-04T03:03:16.124Z,7.33
2018-08-04T03:05:45.366Z,7.60
2018-08-04T03:08:14.565Z,8.27
2018-08-04T03:10:43.771Z,6.83
2018-08-04T03:13:12.906Z,7.37
2018-08-04T03:15:42.260Z,7.83
2018-08-04T03:18:11.325Z,7.70
2018-08-04T03:20:40.487Z,8.13
2018-08-04T03:23:09.694Z,7.73
2018-08-04T03:25:38.880Z,7.33
2018-08-04T03:28:08.100Z,7.90
2018-08-04T03:30:37.302Z,7.63
2018-08-04T03:33:06.383Z,7.77
2018-08-04T03:35:35.526Z,7.77
2018-08-04T03:38:04.770Z,7.83
2018-08-04T03:40:33.906Z,8.50
2018-08-04T03:43:03.067Z,8.27
2018-08-04T03:45:32.103Z,7.20
2018-08-04T03:48:01.237Z,7.77
2018-08-04T03:50:30.268Z,7.47
2018-08-04T03:52:59.595Z,7.20
2018-08-04T03:55:28.758Z,7.03
2018-08-04T03:57:57.742Z,7.37
2018-08-04T04:00:26.821Z,7.77
2018-08-04T04:02:55.965Z,7.40
2018-08-04T04:05:24.844Z,7.83
2018-08-04T04:07:54.008Z,7.67
2018-08-04T04:10:23.246Z,7.07
2018-08-04T04:12:52.380Z,7.07
2018-08-04T04:15:21.520Z,7.37
2018-08-04T04:17:50.534Z,7.60
2018-08-04T04:20:20.555Z,6.77
2018-08-04T04:22:50.117Z,6.77
2018-08-04T04:25:19.121Z,7.07
2018-08-04T04:27:48.346Z,7.10
2018-08-04T04:30:17.580Z,7.57
2018-08-04T04:32:46.658Z,7.97
2018-08-04T04:35:15.975Z,7.63
2018-08-04T04:37:44.923Z,7.23
2018-08-04T04:40:13.914Z,7.03
2018-08-04T04:42:42.927Z,8.30
2018-08-04T04:45:12.140Z,7.67
2018-08-04T04:47:41.306Z,7.30
2018-08-04T04:50:10.493Z,7.63
2018-08-04T04:52:39.940Z,8.00
2018-08-04T04:55:08.990Z,7.57
2018-08-04T04:57:37.871Z,7.13
2018-08-04T05:00:07.084Z,7.00
2018-08-04T05:02:36.359Z,7.50
2018-08-04T05:05:06.272Z,7.60
2018-08-04T05:07:35.486Z,6.80
2018-08-04T05:10:04.362Z,7.30
2018-08-04T05:12:33.760Z,7.70
2018-08-04T05:15:02.651Z,7.80
2018-08-04T05:17:31.614Z,7.03
2018-08-04T05:20:00.766Z,7.47
2018-08-04T05:22:29.861Z,6.90
2018-08-04T05:24:58.742Z,6.80
2018-08-04T05:27:27.976Z,7.47
2018-08-04T05:29:57.214Z,6.53
2018-08-04T05:32:26.163Z,6.20
2018-08-04T05:34:55.393Z,6.50
2018-08-04T05:37:24.492Z,6.57
2018-08-04T05:39:53.897Z,6.83
2018-08-04T05:42:23.053Z,7.20
2018-08-04T05:44:51.935Z,6.53
2018-08-04T05:47:21.280Z,6.47
2018-08-04T05:49:50.157Z,6.23
2018-08-04T05:52:19.442Z,6.47
2018-08-04T05:54:48.384Z,6.80
2018-08-04T05:57:17.502Z,6.87
2018-08-04T05:59:46.767Z,6.77
2018-08-04T06:02:15.870Z,6.77
2018-08-04T06:04:44.618Z,5.93
2018-08-04T06:07:13.694Z,7.17
2018-08-04T06:09:42.687Z,6.83
2018-08-04T06:12:11.544Z,6.07
2018-08-04T06:14:40.709Z,6.70
2018-08-04T06:17:09.914Z,6.40
2018-08-04T06:19:38.726Z,5.93
2018-08-04T06:22:07.718Z,6.00
2018-08-04T06:24:36.875Z,6.23
2018-08-04T06:27:05.964Z,5.93
2018-08-04T06:29:35.286Z,6.23
2018-08-04T06:32:04.542Z,6.57
2018-08-04T06:34:33.793Z,6.03
2018-08-04T06:37:02.926Z,6.07
2018-08-04T06:39:31.938Z,5.83
2018-08-04T06:42:01.119Z,6.33
2018-08-04T06:44:30.325Z,5.80
2018-08-04T06:46:59.610Z,6.00
2018-08-04T06:49:29.084Z,5.87
2018-08-04T06:51:58.195Z,5.77
2018-08-04T06:54:27.404Z,6.00
2018-08-04T06:56:56.594Z,6.13
2018-08-04T06:59:26.014Z,5.70
2018-08-04T07:01:54.760Z,5.63
2018-08-04T07:04:23.923Z,5.73
2018-08-04T07:06:53.136Z,5.77
2018-08-04T07:09:22.430Z,6.00
2018-08-04T07:11:51.510Z,6.00
2018-08-04T07:14:20.582Z,6.47
2018-08-04T07:16:49.810Z,5.73
2018-08-04T07:19:18.910Z,6.00
2018-08-04T07:21:48.169Z,6.00
2018-08-04T07:24:17.502Z,5.83
2018-08-04T07:26:46.323Z,5.87
2018-08-04T07:29:15.068Z,5.90
2018-08-04T07:31:44.146Z,5.50
2018-08-04T07:34:13.294Z,5.20
2018-08-04T07:36:42.507Z,5.23
2018-08-04T07:39:12.024Z,5.37
2018-08-04T07:41:40.967Z,5.43
2018-08-04T07:44:10.160Z,5.10
2018-08-04T07:46:39.236Z,5.13
2018-08-04T07:49:08.357Z,5.10
2018-08-04T07:51:37.467Z,4.50
2018-08-04T07:54:06.747Z,4.93
2018-08-04T07:56:35.982Z,5.53
2018-08-04T07:59:05.174Z,5.07
2018-08-04T08:01:34.239Z,4.83
2018-08-04T08:04:02.982Z,5.00
2018-08-04T08:06:32.156Z,5.00
2018-08-04T08:09:01.018Z,4.60
2018-08-04T08:11:30.120Z,4.83
2018-08-04T08:13:59.066Z,4.90
2018-08-04T08:16:28.207Z,3.80
2018-08-04T08:18:57.114Z,4.23
2018-08-04T08:21:26.142Z,5.07
2018-08-04T08:23:55.186Z,4.77
2018-08-04T08:26:24.256Z,4.60
2018-08-04T08:28:54.269Z,4.53
2018-08-04T08:31:23.194Z,4.30
2018-08-04T08:33:52.299Z,4.03
2018-08-04T08:36:21.351Z,6.77
2018-08-04T08:38:50.384Z,8.70
2018-08-04T08:41:19.383Z,5.30
2018-08-04T08:43:48.717Z,3.70
2018-08-04T08:46:18.072Z,4.30
2018-08-04T08:48:47.371Z,4.43
2018-08-04T08:51:16.346Z,3.50
2018-08-04T08:53:45.514Z,4.23
2018-08-04T08:56:14.583Z,3.70
2018-08-04T08:58:43.693Z,4.10
2018-08-04T09:01:12.999Z,5.83
2018-08-04T09:03:42.384Z,4.37
2018-08-04T09:06:11.454Z,3.87
2018-08-04T09:08:40.575Z,3.87
2018-08-04T09:11:09.793Z,3.87
2018-08-04T09:13:39.038Z,3.10
2018-08-04T09:16:08.147Z,3.07
2018-08-04T09:18:37.585Z,3.80
2018-08-04T09:21:06.919Z,3.73
2018-08-04T09:23:35.800Z,4.33
2018-08-04T09:26:04.589Z,3.83
2018-08-04T09:28:33.571Z,3.20
2018-08-04T09:31:02.603Z,3.22
2018-08-04T09:33:31.894Z,3.22
2018-08-04T09:36:01.222Z,3.50
2018-08-04T09:38:30.495Z,3.50
2018-08-04T09:40:59.630Z,3.50
2018-08-04T09:43:28.636Z,3.58
2018-08-04T09:45:57.714Z,3.30
2018-08-04T09:48:26.874Z,3.22
2018-08-04T09:50:55.912Z,3.42
2018-08-04T09:53:25.100Z,3.42
2018-08-04T09:55:54.320Z,3.52
2018-08-04T09:58:23.427Z,3.30
2018-08-04T10:00:57.279Z,3.08
2018-08-04T10:03:26.325Z,3.20
2018-08-04T10:05:55.482Z,3.15
2018-08-04T10:08:24.594Z,3.22
2018-08-04T10:10:53.879Z,3.47
2018-08-04T10:13:23.030Z,3.47
2018-08-04T10:15:52.351Z,3.55
2018-08-04T10:18:21.615Z,3.55
2018-08-04T10:20:50.679Z,3.55
2018-08-04T10:23:19.727Z,3.58
2018-08-04T10:25:49.097Z,3.45
2018-08-04T10:28:18.194Z,3.40
2018-08-04T10:30:47.293Z,3.83
2018-08-04T10:33:16.697Z,3.90
2018-08-04T10:35:45.960Z,3.77
2018-08-04T10:38:14.998Z,3.55
2018-08-04T10:40:43.809Z,3.87
2018-08-04T10:43:12.652Z,3.50
2018-08-04T10:45:41.819Z,3.42
2018-08-04T10:48:10.994Z,3.87
2018-08-04T10:50:40.148Z,3.90
2018-08-04T10:53:10.198Z,3.83
2018-08-04T10:55:38.947Z,3.70
2018-08-04T10:58:07.723Z,3.45
2018-08-04T11:00:36.867Z,3.58
2018-08-04T11:03:05.877Z,3.70
2018-08-04T11:05:34.987Z,4.15
2018-08-04T11:08:04.130Z,3.50
2018-08-04T11:10:33.303Z,3.85
2018-08-04T11:13:02.535Z,3.08
2018-08-04T11:15:31.750Z,3.60
2018-08-04T11:18:01.240Z,3.60
2018-08-04T11:20:30.425Z,3.70
2018-08-04T11:22:59.664Z,3.80
2018-08-04T11:25:28.688Z,3.80
2018-08-04T11:27:57.791Z,4.03
2018-08-04T11:30:26.942Z,3.55
2018-08-04T11:32:55.879Z,3.70
2018-08-04T11:35:24.740Z,3.80
2018-08-04T11:37:53.799Z,3.30
2018-08-04T11:40:22.884Z,3.60
2018-08-04T11:42:52.058Z,3.45
2018-08-04T11:45:21.152Z,3.58
2018-08-04T11:47:50.394Z,4.08
2018-08-04T11:50:19.275Z,3.40
2018-08-04T11:52:48.336Z,3.65
2018-08-04T11:55:17.466Z,3.80
2018-08-04T11:57:46.486Z,4.05
2018-08-04T12:00:15.300Z,3.70
2018-08-04T12:02:44.498Z,3.67
2018-08-04T12:05:13.371Z,3.52
2018-08-04T12:07:42.478Z,3.60
2018-08-04T12:10:11.574Z,3.60
2018-08-04T12:12:40.774Z,3.47
2018-08-04T12:15:10.109Z,3.65
2018-08-04T12:17:39.264Z,3.70
2018-08-04T12:20:08.618Z,3.62
2018-08-04T12:22:37.413Z,3.50
2018-08-04T12:25:07.067Z,3.15
2018-08-04T12:27:36.247Z,3.77
2018-08-04T12:30:06.839Z,3.70
2018-08-04T12:32:35.915Z,3.55
2018-08-04T12:35:05.032Z,3.55
2018-08-04T12:37:34.096Z,3.77
2018-08-04T12:40:03.000Z,3.75
2018-08-04T12:42:32.050Z,3.30
2018-08-04T12:45:01.260Z,3.72
2018-08-04T12:47:30.602Z,3.70
2018-08-04T12:49:59.889Z,3.70
2018-08-04T12:52:29.281Z,3.45
2018-08-04T12:54:58.262Z,3.62
2018-08-04T12:57:27.424Z,3.80
2018-08-04T12:59:56.265Z,3.50
2018-08-04T13:02:25.522Z,3.33
2018-08-04T13:04:54.703Z,3.35
2018-08-04T13:07:23.815Z,3.47
2018-08-04T13:09:52.748Z,3.60
2018-08-04T13:12:21.452Z,3.55
2018-08-04T13:14:50.375Z,3.95
2018-08-04T13:17:19.664Z,3.50
2018-08-04T13:19:48.761Z,3.50
2018-08-04T13:22:17.688Z,3.70
2018-08-04T13:24:46.746Z,3.60
2018-08-04T13:27:15.547Z,3.40
2018-08-04T13:29:44.729Z,3.27
2018-08-04T13:32:14.039Z,3.50
2018-08-04T13:34:43.375Z,3.70
2018-08-04T13:37:12.578Z,3.93
2018-08-04T13:39:41.871Z,3.83
2018-08-04T13:42:11.015Z,3.80
2018-08-04T13:44:39.909Z,3.47
2018-08-04T13:47:08.770Z,3.57
2018-08-04T13:49:37.942Z,3.87
2018-08-04T13:52:07.193Z,3.60
2018-08-04T13:54:36.238Z,3.57
2018-08-04T13:57:05.339Z,3.63
2018-08-04T13:59:34.486Z,4.00
2018-08-04T14:02:03.361Z,3.70
2018-08-04T14:04:32.517Z,3.50
2018-08-04T14:07:01.550Z,3.77
2018-08-04T14:09:30.795Z,3.33
2018-08-04T14:11:59.935Z,3.27
2018-08-04T14:14:29.060Z,3.90
2018-08-04T14:16:58.000Z,3.77
2018-08-04T14:19:27.235Z,3.70
2018-08-04T14:21:56.578Z,3.47
2018-08-04T14:24:25.660Z,3.40
2018-08-04T14:26:54.779Z,3.57
2018-08-04T14:29:24.070Z,3.60
2018-08-04T14:31:52.950Z,3.67
2018-08-04T14:34:21.691Z,3.50
2018-08-04T14:36:50.610Z,3.67
2018-08-04T14:39:19.793Z,3.83
2018-08-04T14:41:48.844Z,3.80
2018-08-04T14:44:17.774Z,4.00
2018-08-04T14:46:46.749Z,3.67
2018-08-04T14:49:15.762Z,3.40
2018-08-04T14:51:44.877Z,3.30
2018-08-04T14:54:13.842Z,3.70
2018-08-04T14:56:43.083Z,3.57
2018-08-04T14:59:12.169Z,3.40
2018-08-04T15:01:41.373Z,4.47
2018-08-04T15:04:10.621Z,4.23
2018-08-04T15:06:39.699Z,3.80
2018-08-04T15:09:11.256Z,3.63
2018-08-04T15:11:40.809Z,3.70
2018-08-04T15:14:10.778Z,3.53
2018-08-04T15:16:40.028Z,3.60
2018-08-04T15:19:09.242Z,3.37
2018-08-04T15:21:38.036Z,3.73
2018-08-04T15:24:07.216Z,3.60
2018-08-04T15:26:36.410Z,3.97
2018-08-04T15:29:05.531Z,4.73
2018-08-04T15:31:34.759Z,3.47
2018-08-04T15:34:04.192Z,3.87
2018-08-04T15:36:33.494Z,3.47
2018-08-04T15:39:02.694Z,3.83
2018-08-04T15:41:31.892Z,3.20
2018-08-04T15:44:01.033Z,4.17
2018-08-04T15:46:30.130Z,4.13
2018-08-04T15:48:58.946Z,3.77
2018-08-04T15:51:28.247Z,3.60
2018-08-04T15:53:57.229Z,4.00
2018-08-04T15:56:26.018Z,3.83
2018-08-04T15:58:55.265Z,3.70
2018-08-04T16:01:24.093Z,3.77
2018-08-04T16:03:53.235Z,3.70
2018-08-04T16:06:22.325Z,4.60
2018-08-04T16:08:51.218Z,4.63
2018-08-04T16:11:20.311Z,4.40
2018-08-04T16:13:49.354Z,4.90
2018-08-04T16:16:18.736Z,4.40
2018-08-04T16:18:47.875Z,6.57
2018-08-04T16:21:17.033Z,5.90
2018-08-04T16:23:45.790Z,5.77
2018-08-04T16:26:14.682Z,5.10
2018-08-04T16:28:43.539Z,5.50
2018-08-04T16:31:12.941Z,5.60
2018-08-04T16:33:42.218Z,4.23
2018-08-04T16:36:11.433Z,5.40
2018-08-04T16:38:40.577Z,5.20
2018-08-04T16:41:09.758Z,5.20
2018-08-04T16:43:38.907Z,6.20
2018-08-04T16:46:07.942Z,6.10
2018-08-04T16:48:36.920Z,6.30
2018-08-04T16:51:05.958Z,5.87
2018-08-04T16:53:35.295Z,5.33
2018-08-04T16:56:04.251Z,5.60
2018-08-04T16:58:33.278Z,5.27
2018-08-04T17:01:02.435Z,6.63
2018-08-04T17:03:31.238Z,4.93
2018-08-04T17:06:00.479Z,4.50
2018-08-04T17:08:29.427Z,4.87
2018-08-04T17:10:58.570Z,4.50
2018-08-04T17:13:27.691Z,5.20
2018-08-04T17:15:56.914Z,4.93
2018-08-04T17:18:26.173Z,4.30
2018-08-04T17:20:55.165Z,4.37
2018-08-04T17:23:24.284Z,4.83
2018-08-04T17:25:53.442Z,4.60
2018-08-04T17:28:22.500Z,4.87
2018-08-04T17:30:51.773Z,4.80
2018-08-04T17:33:21.027Z,4.20
2018-08-04T17:35:50.069Z,4.50
2018-08-04T17:38:19.209Z,4.27
2018-08-04T17:40:48.089Z,4.37
2018-08-04T17:43:17.269Z,4.50
2018-08-04T17:45:46.386Z,5.87
2018-08-04T17:48:15.566Z,5.87
2018-08-04T17:50:44.562Z,4.83
2018-08-04T17:53:13.460Z,5.20
2018-08-04T17:55:42.532Z,10.40
2018-08-04T17:58:11.858Z,5.73
2018-08-04T18:00:41.009Z,4.73
2018-08-04T18:03:10.164Z,5.17
2018-08-04T18:05:38.901Z,4.93
2018-08-04T18:08:08.068Z,4.63
2018-08-04T18:10:37.304Z,4.83
2018-08-04T18:13:06.493Z,5.33
2018-08-04T18:15:35.726Z,4.23
2018-08-04T18:18:04.968Z,3.87
2018-08-04T18:20:33.799Z,4.33
2018-08-04T18:23:03.281Z,4.10
2018-08-04T18:25:32.526Z,4.47
2018-08-04T18:28:01.549Z,4.53
2018-08-04T18:30:31.298Z,4.20
2018-08-04T18:33:00.666Z,4.60
2018-08-04T18:35:29.753Z,4.40
2018-08-04T18:37:59.017Z,4.47
2018-08-04T18:40:27.899Z,5.17
2018-08-04T18:42:57.049Z,5.70
2018-08-04T18:45:26.390Z,4.80
2018-08-04T18:47:55.649Z,4.70
2018-08-04T18:50:24.919Z,4.80
2018-08-04T18:52:54.162Z,4.60
2018-08-04T18:55:23.567Z,4.97
2018-08-04T18:57:52.629Z,4.90
2018-08-04T19:00:21.930Z,4.77
2018-08-04T19:02:51.259Z,5.23
2018-08-04T19:05:20.130Z,4.70
2018-08-04T19:07:49.219Z,5.40
2018-08-04T19:10:18.411Z,5.07
2018-08-04T19:12:47.207Z,4.73
2018-08-04T19:15:16.180Z,5.00
2018-08-04T19:17:45.429Z,4.50
2018-08-04T19:20:14.481Z,4.30
2018-08-04T19:22:43.235Z,4.33
2018-08-04T19:25:12.405Z,4.70
2018-08-04T19:27:41.411Z,4.30
2018-08-04T19:30:10.747Z,4.50
2018-08-04T19:32:39.742Z,4.23
2018-08-04T19:35:08.837Z,3.90
2018-08-04T19:37:38.031Z,4.27
2018-08-04T19:40:07.434Z,4.50
2018-08-04T19:42:36.665Z,4.53
2018-08-04T19:45:05.504Z,4.53
2018-08-04T19:47:34.722Z,4.40
2018-08-04T19:50:03.689Z,4.60
2018-08-04T19:52:32.819Z,4.60
2018-08-04T19:55:01.899Z,4.53
2018-08-04T19:57:31.794Z,4.67
2018-08-04T20:00:00.951Z,4.50
2018-08-04T20:02:30.036Z,4.63
2018-08-04T20:04:58.851Z,4.70
2018-08-04T20:07:29.279Z,4.43
2018-08-04T20:09:58.395Z,4.93
2018-08-04T20:12:27.751Z,5.37
2018-08-04T20:14:56.892Z,5.07
2018-08-04T20:17:25.951Z,4.70
2018-08-04T20:19:55.242Z,5.07
2018-08-04T20:22:24.484Z,5.00
2018-08-04T20:24:53.717Z,5.60
2018-08-04T20:27:22.621Z,5.33
2018-08-04T20:29:51.895Z,5.07
2018-08-04T20:32:21.210Z,4.93
2018-08-04T20:34:50.434Z,4.70
2018-08-04T20:37:19.623Z,4.47
2018-08-04T20:39:48.859Z,4.50
2018-08-04T20:42:17.766Z,4.97
2018-08-04T20:44:46.881Z,4.93
2018-08-04T20:47:16.044Z,5.00
2018-08-04T20:49:45.201Z,4.60
2018-08-04T20:52:14.310Z,4.30
2018-08-04T20:54:43.637Z,4.57
2018-08-04T20:57:12.880Z,4.57
2018-08-04T20:59:41.750Z,4.47
2018-08-04T21:02:10.662Z,4.50
2018-08-04T21:04:39.758Z,5.00
2018-08-04T21:07:08.993Z,4.53
2018-08-04T21:09:38.222Z,4.37
2018-08-04T21:12:07.079Z,4.17
2018-08-04T21:14:36.228Z,4.73
2018-08-04T21:17:05.074Z,4.87
2018-08-04T21:19:34.313Z,4.80
2018-08-04T21:22:03.236Z,4.17
2018-08-04T21:24:32.504Z,4.90
2018-08-04T21:27:01.664Z,4.40
2018-08-04T21:29:31.004Z,5.00
2018-08-04T21:32:00.147Z,5.23
2018-08-04T21:34:29.151Z,4.57
2018-08-04T21:36:58.439Z,4.63
2018-08-04T21:39:27.569Z,4.97
2018-08-04T21:41:56.744Z,4.93
2018-08-04T21:44:25.958Z,5.03
2018-08-04T21:46:55.012Z,4.60
2018-08-04T21:49:24.025Z,4.60
2018-08-04T21:51:53.041Z,4.37
2018-08-04T21:54:22.286Z,4.87
2018-08-04T21:56:51.390Z,5.27
2018-08-04T21:59:20.482Z,5.00
2018-08-04T22:01:55.078Z,4.70
2018-08-04T22:04:24.097Z,4.63
2018-08-04T22:07:05.855Z,4.73
2018-08-04T22:09:35.114Z,5.27
2018-08-04T22:12:04.427Z,4.70
2018-08-04T22:14:33.718Z,4.80
2018-08-04T22:17:02.622Z,4.67
2018-08-04T22:19:31.615Z,5.07
2018-08-04T22:22:00.899Z,5.07
2018-08-04T22:24:30.159Z,5.37
2018-08-04T22:26:59.412Z,5.20
2018-08-04T22:29:28.655Z,5.03
2018-08-04T22:31:57.851Z,5.13
2018-08-04T22:34:26.947Z,4.87
2018-08-04T22:36:56.031Z,5.80
2018-08-04T22:39:25.386Z,5.43
2018-08-04T22:41:54.535Z,5.70
2018-08-04T22:44:23.665Z,5.50
2018-08-04T22:46:52.706Z,5.73
2018-08-04T22:49:21.962Z,5.40
2018-08-04T22:51:51.117Z,5.93
2018-08-04T22:54:20.351Z,5.80
2018-08-04T22:56:49.608Z,5.47
2018-08-04T22:59:18.970Z,5.27
2018-08-04T23:01:48.268Z,5.23
2018-08-04T23:04:17.571Z,5.30
2018-08-04T23:06:46.842Z,5.57
2018-08-04T23:09:16.121Z,5.47
2018-08-04T23:11:45.443Z,5.50
2018-08-04T23:14:14.483Z,5.90
2018-08-04T23:16:43.378Z,5.87
2018-08-04T23:19:12.520Z,5.83
2018-08-04T23:21:41.793Z,5.77
2018-08-04T23:24:11.043Z,5.40
2018-08-04T23:26:40.285Z,5.17
2018-08-04T23:29:09.643Z,5.33
2018-08-04T23:31:38.865Z,5.03
2018-08-04T23:34:07.999Z,5.37
2018-08-04T23:36:37.171Z,5.33
2018-08-04T23:39:08.244Z,5.70
2018-08-04T23:41:37.558Z,5.13
2018-08-04T23:44:06.594Z,5.40
2018-08-04T23:46:35.791Z,5.00
2018-08-04T23:49:04.856Z,5.40
2018-08-04T23:51:33.891Z,5.60
2018-08-04T23:54:02.969Z,5.47
2018-08-04T23:56:32.210Z,5.67
2018-08-04T23:59:01.179Z,5.40
